Time;durP1;ratioP1;P1;durP2;ratioP2;P2;SDS_P1;SDS_P2;PMS_P1;PMS_P2;Temp;Humidity;BMP_temperature;BMP_pressure;BME280_temperature;BME280_humidity;BME280_pressure;Samples;Min_cycle;Max_cycle;Signal;HPM_P1;HPM_P2
2023/06/25 00:00:45;;;;;;;10.75;5.10;;;27.30;99.90;;;;;;1876241;75;21127;-78
2023/06/25 00:03:16;;;;;;;7.92;5.08;;;27.30;99.90;;;;;;1867641;75;21084;-76
2023/06/25 00:05:49;;;;;;;7.87;4.83;;;27.30;99.90;;;;;;1859065;75;21084;-79
2023/06/25 00:08:21;;;;;;;10.32;4.83;;;27.30;99.90;;;;;;1870232;76;21565;-77
2023/06/25 00:10:54;;;;;;;10.75;5.20;;;27.40;99.90;;;;;;1864123;75;21571;-78
2023/06/25 00:13:25;;;;;;;9.73;5.00;;;27.40;99.90;;;;;;1864173;75;21169;-76
2023/06/25 00:15:58;;;;;;;7.58;5.37;;;27.40;99.90;;;;;;1858760;75;21095;-76
2023/06/25 00:18:33;;;;;;;11.55;5.12;;;27.50;99.90;;;;;;1876160;75;21083;-81
2023/06/25 00:21:05;;;;;;;10.38;5.30;;;27.50;99.90;;;;;;1866443;75;21084;-81
2023/06/25 00:23:37;;;;;;;9.13;5.35;;;27.50;99.90;;;;;;1863947;75;21100;-83
2023/06/25 00:26:08;;;;;;;18.73;5.83;;;27.50;99.90;;;;;;1846363;75;21138;-82
2023/06/25 00:28:40;;;;;;;11.40;5.55;;;27.60;99.90;;;;;;1864635;75;21128;-79
2023/06/25 00:31:15;;;;;;;9.63;6.03;;;27.60;99.90;;;;;;1851626;75;21108;-76
2023/06/25 00:33:49;;;;;;;10.35;5.85;;;27.60;99.90;;;;;;1839916;76;21510;-82
2023/06/25 00:36:20;;;;;;;9.98;5.85;;;27.70;99.90;;;;;;1861710;75;21305;-81
2023/06/25 00:38:51;;;;;;;11.78;6.42;;;27.70;99.90;;;;;;1864113;75;21151;-79
2023/06/25 00:41:26;;;;;;;10.80;5.97;;;27.70;99.90;;;;;;1822235;76;21180;-82
2023/06/25 00:43:58;;;;;;;10.93;6.50;;;27.80;99.90;;;;;;1808736;77;21135;-77
2023/06/25 00:46:32;;;;;;;10.82;6.05;;;27.80;99.90;;;;;;1876568;75;21759;-81
2023/06/25 00:49:08;;;;;;;11.50;7.15;;;27.90;99.90;;;;;;1884000;75;21546;-79
2023/06/25 00:51:40;;;;;;;11.55;6.92;;;27.90;99.90;;;;;;1815617;77;21166;-81
2023/06/25 00:54:13;;;;;;;12.45;7.00;;;28.00;99.90;;;;;;1871959;75;21722;-80
2023/06/25 00:56:46;;;;;;;11.73;7.25;;;28.00;99.90;;;;;;1875555;75;21107;-81
2023/06/25 00:59:17;;;;;;;17.07;9.20;;;28.00;99.90;;;;;;1871179;75;21637;-79
2023/06/25 01:01:54;;;;;;;14.83;8.78;;;28.00;99.90;;;;;;1867616;75;21127;-82
2023/06/25 01:04:28;;;;;;;14.00;9.13;;;28.00;99.90;;;;;;1809597;79;21172;-78
2023/06/25 01:07:01;;;;;;;12.23;7.58;;;28.00;99.90;;;;;;1819968;77;21075;-83
2023/06/25 01:09:33;;;;;;;11.65;7.75;;;28.00;99.90;;;;;;1815712;77;21672;-79
2023/06/25 01:12:07;;;;;;;13.05;6.65;;;28.10;99.90;;;;;;1845937;76;21579;-77
2023/06/25 01:14:38;;;;;;;10.43;6.70;;;28.10;99.90;;;;;;1830983;75;21142;-79
2023/06/25 01:17:11;;;;;;;9.85;7.75;;;28.10;99.90;;;;;;1831079;76;21172;-83
2023/06/25 01:19:43;;;;;;;12.90;7.28;;;28.10;99.90;;;;;;1836786;76;21154;-81
2023/06/25 01:22:17;;;;;;;12.40;7.75;;;28.20;99.90;;;;;;1832416;76;22037;-79
2023/06/25 01:24:49;;;;;;;13.03;7.90;;;28.30;99.90;;;;;;1841797;76;21206;-81
2023/06/25 01:27:23;;;;;;;12.70;8.33;;;28.30;99.90;;;;;;1831008;77;21167;-81
2023/06/25 01:29:58;;;;;;;10.63;8.00;;;28.40;99.90;;;;;;1816979;77;21241;-83
2023/06/25 01:32:29;;;;;;;11.15;7.62;;;28.60;99.90;;;;;;1861461;75;21249;-79
2023/06/25 01:35:00;;;;;;;8.65;7.12;;;28.70;99.90;;;;;;1876488;75;21150;-84
2023/06/25 01:37:32;;;;;;;14.43;8.43;;;28.80;99.90;;;;;;1823904;77;21098;-81
2023/06/25 01:40:07;;;;;;;9.83;6.78;;;28.90;99.90;;;;;;1800973;78;21110;-84
2023/06/25 01:42:39;;;;;;;9.28;7.30;;;29.00;99.90;;;;;;1801867;78;21106;-82
2023/06/25 01:45:11;;;;;;;10.48;7.08;;;29.10;99.90;;;;;;1818589;77;21244;-81
2023/06/25 01:47:42;;;;;;;11.05;6.92;;;29.20;99.90;;;;;;1858432;76;21191;-83
2023/06/25 01:50:17;;;;;;;13.88;7.58;;;29.30;99.90;;;;;;1829296;76;21518;-83
2023/06/25 01:52:49;;;;;;;14.98;7.17;;;29.50;99.90;;;;;;1852904;76;21147;-83
2023/06/25 01:55:22;;;;;;;8.23;6.42;;;29.50;99.90;;;;;;1846010;76;21151;-84
2023/06/25 01:57:54;;;;;;;10.10;6.28;;;29.60;99.90;;;;;;1844082;77;21682;-80
2023/06/25 02:00:25;;;;;;;10.78;6.75;;;29.70;99.90;;;;;;1834679;77;21198;-79
2023/06/25 02:02:57;;;;;;;12.55;6.53;;;29.80;99.90;;;;;;1848626;75;21087;-83
2023/06/25 02:05:29;;;;;;;10.45;6.65;;;29.80;99.90;;;;;;1859130;75;21099;-80
2023/06/25 02:08:03;;;;;;;12.98;7.15;;;29.80;99.90;;;;;;1830008;77;21243;-83
2023/06/25 02:10:35;;;;;;;10.53;6.45;;;29.80;99.90;;;;;;1855825;75;21576;-80
2023/06/25 02:13:08;;;;;;;13.40;7.28;;;29.80;99.90;;;;;;1805589;77;21248;-81
2023/06/25 02:15:41;;;;;;;11.35;7.53;;;29.80;99.90;;;;;;1831899;77;21736;-81
2023/06/25 02:18:13;;;;;;;12.82;7.80;;;29.70;99.90;;;;;;1847826;75;21198;-81
2023/06/25 02:20:45;;;;;;;11.10;7.17;;;29.70;99.90;;;;;;1842510;76;21141;-82
2023/06/25 02:23:16;;;;;;;12.82;7.53;;;29.50;99.90;;;;;;1851010;76;21141;-79
2023/06/25 02:25:51;;;;;;;8.88;7.53;;;29.50;99.90;;;;;;1846839;76;21154;-82
2023/06/25 02:28:23;;;;;;;10.95;7.12;;;29.40;99.90;;;;;;1869862;75;21529;-81
2023/06/25 02:30:54;;;;;;;10.00;6.70;;;29.40;99.90;;;;;;1864810;75;21155;-80
2023/06/25 02:33:25;;;;;;;8.45;6.40;;;29.40;99.90;;;;;;1862537;75;21083;-80
2023/06/25 02:36:04;;;;;;;10.18;7.05;;;29.50;99.90;;;;;;1858751;75;21087;-81
2023/06/25 02:38:47;;;;;;;10.28;7.08;;;29.60;99.90;;;;;;1826739;77;21261;-77
2023/06/25 02:41:24;;;;;;;11.45;7.08;;;29.70;99.90;;;;;;1857820;75;21146;-75
2023/06/25 02:43:58;;;;;;;12.58;6.90;;;29.80;99.90;;;;;;1877470;75;21617;-77
2023/06/25 02:46:30;;;;;;;12.30;7.67;;;30.00;99.90;;;;;;1859362;75;21173;-76
2023/06/25 02:49:03;;;;;;;9.98;6.92;;;30.20;99.90;;;;;;1821207;77;21150;-76
2023/06/25 02:51:35;;;;;;;11.35;6.47;;;30.30;99.90;;;;;;1887456;75;21197;-79
2023/06/25 02:54:09;;;;;;;11.22;7.83;;;30.40;99.90;;;;;;1868853;74;21121;-76
2023/06/25 02:56:46;;;;;;;13.05;6.70;;;30.40;99.90;;;;;;1885885;75;21190;-76
2023/06/25 02:59:29;;;;;;;9.50;6.58;;;30.30;99.90;;;;;;1886854;74;21405;-77
2023/06/25 03:02:01;;;;;;;9.90;6.55;;;30.30;99.90;;;;;;1855325;76;21193;-81
2023/06/25 03:04:38;;;;;;;9.58;6.87;;;30.20;99.90;;;;;;1865239;75;21066;-80
2023/06/25 03:07:10;;;;;;;9.28;7.10;;;30.10;99.90;;;;;;1816904;77;21262;-79
2023/06/25 03:09:43;;;;;;;11.50;7.12;;;30.10;99.90;;;;;;1818680;77;21117;-80
2023/06/25 03:12:34;;;;;;;11.68;6.80;;;30.00;99.90;;;;;;1850827;75;21189;-79
2023/06/25 03:15:07;;;;;;;11.78;7.28;;;29.90;99.90;;;;;;1860961;75;21234;-81
2023/06/25 03:17:41;;;;;;;15.58;7.17;;;29.90;99.90;;;;;;1934878;73;21191;-81
2023/06/25 03:20:13;;;;;;;10.25;6.78;;;29.90;99.90;;;;;;1929521;73;21554;-80
2023/06/25 03:22:44;;;;;;;11.33;7.17;;;29.90;99.90;;;;;;1875084;74;21163;-78
2023/06/25 03:25:17;;;;;;;11.78;7.40;;;29.90;99.90;;;;;;1894552;75;21618;-77
2023/06/25 03:27:48;;;;;;;12.43;7.28;;;29.90;99.90;;;;;;1864900;76;21738;-79
2023/06/25 03:30:19;;;;;;;12.40;7.50;;;29.90;99.90;;;;;;1899858;75;21536;-79
2023/06/25 03:32:50;;;;;;;14.90;8.83;;;30.00;99.90;;;;;;1929623;73;21560;-80
2023/06/25 03:35:23;;;;;;;12.40;7.92;;;30.00;99.90;;;;;;1933047;73;21122;-82
2023/06/25 03:37:56;;;;;;;11.50;6.83;;;30.00;99.90;;;;;;1948568;73;21193;-81
2023/06/25 03:40:30;;;;;;;10.03;7.55;;;30.10;99.90;;;;;;1876722;75;21052;-83
2023/06/25 03:43:01;;;;;;;12.88;8.35;;;30.10;99.90;;;;;;1920854;73;21115;-81
2023/06/25 03:45:38;;;;;;;12.43;7.42;;;30.10;99.90;;;;;;1879621;74;21176;-82
2023/06/25 03:48:10;;;;;;;11.78;7.03;;;30.20;99.90;;;;;;1877792;75;21071;-81
2023/06/25 03:50:42;;;;;;;9.80;6.15;;;30.20;99.90;;;;;;1863480;75;21210;-80
2023/06/25 03:53:17;;;;;;;10.63;6.80;;;30.30;99.90;;;;;;1877654;75;21099;-80
2023/06/25 03:55:49;;;;;;;8.03;6.55;;;30.30;99.90;;;;;;1902611;75;21161;-79
2023/06/25 03:58:20;;;;;;;9.38;6.60;;;30.30;99.90;;;;;;1885844;73;21180;-79
2023/06/25 04:00:52;;;;;;;14.45;6.55;;;30.30;99.90;;;;;;1872282;75;21111;-77
2023/06/25 04:03:25;;;;;;;10.28;6.12;;;30.40;99.90;;;;;;1892037;75;21627;-81
2023/06/25 04:05:56;;;;;;;9.55;6.42;;;30.40;99.90;;;;;;1875857;74;21486;-80
2023/06/25 04:08:29;;;;;;;12.60;6.03;;;30.50;99.90;;;;;;1931474;73;21165;-78
2023/06/25 04:11:02;;;;;;;9.60;5.95;;;30.50;99.90;;;;;;1931488;73;21134;-76
2023/06/25 04:13:37;;;;;;;7.35;5.35;;;30.60;99.90;;;;;;1880165;73;21083;-78
2023/06/25 04:16:11;;;;;;;9.15;5.53;;;30.60;99.90;;;;;;1924351;73;21134;-83
2023/06/25 04:18:45;;;;;;;10.45;5.15;;;30.60;99.90;;;;;;1872769;73;21169;-82
2023/06/25 04:21:16;;;;;;;23.50;7.62;;;30.60;99.90;;;;;;1870963;73;21166;-82
2023/06/25 04:23:48;;;;;;;20.25;7.17;;;30.50;99.90;;;;;;1927376;73;21164;-81
2023/06/25 04:26:22;;;;;;;20.85;8.30;;;30.50;99.90;;;;;;1888144;74;21788;-79
2023/06/25 04:28:55;;;;;;;38.25;9.65;;;30.40;99.90;;;;;;1874503;74;21075;-83
2023/06/25 04:31:27;;;;;;;26.82;7.65;;;30.40;99.90;;;;;;1835121;77;21139;-82
2023/06/25 04:34:00;;;;;;;27.37;7.83;;;30.40;99.90;;;;;;1876192;73;21163;-84
2023/06/25 04:36:33;;;;;;;26.17;8.20;;;30.30;99.90;;;;;;1879893;75;21586;-83
2023/06/25 04:39:05;;;;;;;12.58;5.90;;;30.30;99.90;;;;;;1874481;74;21139;-80
2023/06/25 04:41:38;;;;;;;10.48;5.12;;;30.30;99.90;;;;;;1949669;73;21102;-82
2023/06/25 04:44:10;;;;;;;8.53;4.95;;;30.40;99.90;;;;;;1888025;75;21055;-79
2023/06/25 04:46:41;;;;;;;8.03;5.45;;;30.50;99.90;;;;;;1935247;73;21188;-77
2023/06/25 04:49:13;;;;;;;10.80;5.90;;;30.60;99.90;;;;;;1937241;73;21063;-79
2023/06/25 04:51:47;;;;;;;11.45;5.80;;;30.60;99.90;;;;;;1928125;73;21055;-78
2023/06/25 04:54:18;;;;;;;10.28;5.35;;;30.60;99.90;;;;;;1889311;75;21113;-75
2023/06/25 04:56:51;;;;;;;8.25;5.25;;;30.70;99.90;;;;;;1927119;73;21174;-78
2023/06/25 04:59:27;;;;;;;7.13;5.57;;;30.70;99.90;;;;;;1876972;74;21232;-79
2023/06/25 05:01:58;;;;;;;10.18;6.05;;;30.70;99.90;;;;;;1881797;74;21119;-83
2023/06/25 05:04:30;;;;;;;11.18;5.92;;;30.70;99.90;;;;;;1884918;75;21050;-83
2023/06/25 05:07:01;;;;;;;7.65;5.80;;;30.70;99.90;;;;;;1931128;73;21173;-80
2023/06/25 05:09:33;;;;;;;9.30;5.60;;;30.70;99.90;;;;;;1936409;73;21213;-80
2023/06/25 05:12:05;;;;;;;10.20;4.92;;;30.60;99.90;;;;;;1884478;74;21211;-79
2023/06/25 05:14:42;;;;;;;8.28;4.72;;;30.60;99.90;;;;;;1887789;75;21145;-80
2023/06/25 05:17:14;;;;;;;8.73;5.00;;;30.60;99.90;;;;;;1885596;75;21162;-81
2023/06/25 05:19:46;;;;;;;9.08;3.95;;;30.50;99.90;;;;;;1877733;75;21139;-81
2023/06/25 05:22:17;;;;;;;6.97;3.33;;;30.50;99.90;;;;;;1875936;75;21228;-77
2023/06/25 05:24:50;;;;;;;6.15;3.50;;;30.40;99.90;;;;;;1938053;73;21149;-76
2023/06/25 05:27:21;;;;;;;6.72;3.90;;;30.40;99.90;;;;;;1924042;73;21193;-77
2023/06/25 05:29:53;;;;;;;5.87;3.37;;;30.40;99.90;;;;;;1938527;73;21075;-79
2023/06/25 05:32:25;;;;;;;9.93;3.58;;;30.30;99.90;;;;;;1881414;73;21044;-76
2023/06/25 05:34:57;;;;;;;6.15;3.70;;;30.30;99.90;;;;;;1911897;73;21134;-80
2023/06/25 05:37:28;;;;;;;8.00;4.45;;;30.30;99.90;;;;;;1907114;73;21680;-81
2023/06/25 05:39:59;;;;;;;8.40;4.08;;;30.30;99.90;;;;;;1882030;74;21127;-78
2023/06/25 05:42:37;;;;;;;7.03;4.17;;;30.30;99.90;;;;;;1845560;76;21777;-79
2023/06/25 05:45:09;;;;;;;8.30;4.35;;;30.30;99.90;;;;;;1929348;73;21091;-76
2023/06/25 05:47:45;;;;;;;10.48;4.67;;;30.30;99.90;;;;;;1933461;73;21071;-71
2023/06/25 05:50:16;;;;;;;9.43;4.70;;;30.30;99.90;;;;;;1873736;75;21212;-71
2023/06/25 05:52:49;;;;;;;9.78;4.15;;;30.40;99.90;;;;;;1870012;75;21662;-71
2023/06/25 05:55:20;;;;;;;7.58;3.85;;;30.40;99.90;;;;;;1879087;75;21141;-72
2023/06/25 05:57:53;;;;;;;12.85;4.30;;;30.40;99.90;;;;;;1889382;74;21074;-73
2023/06/25 06:00:26;;;;;;;36.90;5.85;;;30.50;99.90;;;;;;1889857;74;21541;-72
2023/06/25 06:02:57;;;;;;;10.58;3.62;;;30.60;99.90;;;;;;1871466;74;21153;-72
2023/06/25 06:05:29;;;;;;;15.38;4.20;;;30.60;99.90;;;;;;1890318;73;21149;-72
2023/06/25 06:08:00;;;;;;;9.58;3.17;;;30.60;99.90;;;;;;1891842;74;21561;-73
2023/06/25 06:10:32;;;;;;;6.22;3.17;;;30.70;99.80;;;;;;1895588;74;22222;-73
2023/06/25 06:13:04;;;;;;;10.10;3.80;;;30.80;99.90;;;;;;1841954;76;21148;-72
2023/06/25 06:15:36;;;;;;;7.50;3.12;;;30.90;99.80;;;;;;1925099;73;21083;-73
2023/06/25 06:18:08;;;;;;;13.32;4.12;;;31.10;99.40;;;;;;1889551;74;21123;-73
2023/06/25 06:20:39;;;;;;;7.58;3.92;;;31.20;99.30;;;;;;1930567;73;21115;-71
2023/06/25 06:23:18;;;;;;;20.70;4.60;;;31.30;99.30;;;;;;1923996;73;21855;-72
2023/06/25 06:25:51;;;;;;;21.05;5.40;;;31.40;98.00;;;;;;1872456;75;21164;-71
2023/06/25 06:28:23;;;;;;;13.93;4.00;;;31.50;97.40;;;;;;1868548;76;21180;-71
2023/06/25 06:30:57;;;;;;;32.05;5.37;;;31.50;97.90;;;;;;1929454;73;21165;-72
2023/06/25 06:33:28;;;;;;;25.35;5.85;;;31.60;97.80;;;;;;1902624;74;21176;-71
2023/06/25 06:36:00;;;;;;;23.70;6.40;;;;;;;;;;1909829;73;21501;-74
2023/06/25 06:38:31;;;;;;;68.07;11.85;;;31.70;97.60;;;;;;1851881;75;21112;-73
2023/06/25 06:41:02;;;;;;;53.23;9.55;;;31.80;97.80;;;;;;1859770;75;21135;-72
2023/06/25 06:43:34;;;;;;;9.68;3.10;;;31.80;97.40;;;;;;1853567;76;21063;-72
2023/06/25 06:46:06;;;;;;;8.65;3.20;;;31.80;96.70;;;;;;1924943;73;21577;-71
2023/06/25 06:48:39;;;;;;;10.80;3.62;;;31.80;97.00;;;;;;1916488;73;21574;-72
2023/06/25 06:51:11;;;;;;;12.23;4.25;;;31.80;96.80;;;;;;1893231;74;21612;-72
2023/06/25 06:53:44;;;;;;;7.85;2.80;;;31.90;96.90;;;;;;1895144;74;21205;-72
2023/06/25 06:56:21;;;;;;;13.43;3.30;;;31.90;96.30;;;;;;1896962;74;21614;-73
2023/06/25 06:58:54;;;;;;;6.80;2.87;;;31.80;96.60;;;;;;1904626;74;21180;-73
2023/06/25 07:01:26;;;;;;;113.00;15.20;;;31.80;96.90;;;;;;1840685;76;21167;-72
2023/06/25 07:03:59;;;;;;;57.90;10.95;;;31.80;96.50;;;;;;1915440;73;21247;-73
2023/06/25 07:06:30;;;;;;;19.15;3.92;;;31.90;96.70;;;;;;1948427;73;21039;-71
2023/06/25 07:09:01;;;;;;;4.58;2.45;;;31.90;96.80;;;;;;1933250;73;21114;-72
2023/06/25 07:11:38;;;;;;;6.37;2.17;;;31.90;96.10;;;;;;1888138;74;21127;-72
2023/06/25 07:14:19;;;;;;;6.47;2.72;;;31.90;95.30;;;;;;1843606;76;21146;-72
2023/06/25 07:16:51;;;;;;;6.37;2.30;;;31.90;95.90;;;;;;1881704;75;21076;-73
2023/06/25 07:19:27;;;;;;;6.47;2.90;;;31.90;95.70;;;;;;1892879;74;21091;-74
2023/06/25 07:21:59;;;;;;;5.67;2.65;;;31.90;95.90;;;;;;1928478;73;21136;-72
2023/06/25 07:24:31;;;;;;;6.35;2.47;;;32.00;95.60;;;;;;1911039;73;21148;-74
2023/06/25 07:27:02;;;;;;;6.72;2.87;;;32.00;96.30;;;;;;1918933;73;21126;-73
2023/06/25 07:29:34;;;;;;;7.55;2.67;;;32.00;96.20;;;;;;1872161;75;21048;-73
2023/06/25 07:32:13;;;;;;;5.10;2.37;;;32.00;96.10;;;;;;1900836;73;21917;-72
2023/06/25 07:34:45;;;;;;;5.42;2.47;;;32.10;96.30;;;;;;1883801;75;21064;-73
2023/06/25 07:37:18;;;;;;;4.28;2.17;;;32.10;95.50;;;;;;1878981;74;21126;-74
2023/06/25 07:39:51;;;;;;;19.95;4.40;;;32.10;95.40;;;;;;1925614;73;21701;-73
2023/06/25 07:42:22;;;;;;;11.60;3.17;;;32.10;95.70;;;;;;1930347;73;21005;-73
2023/06/25 07:44:55;;;;;;;10.18;3.98;;;32.20;95.90;;;;;;1919164;73;21059;-71
2023/06/25 07:47:27;;;;;;;5.42;2.40;;;32.10;95.90;;;;;;1870892;75;21071;-72
2023/06/25 07:50:09;;;;;;;;;;;;;;;;;;;;;
2023/06/25 07:52:53;;;;;;;8.10;3.12;;;32.10;95.60;;;;;;1970562;72;21102;-72
2023/06/25 07:55:30;;;;;;;4.28;2.72;;;32.10;96.60;;;;;;1975285;71;21183;-72
2023/06/25 07:58:01;;;;;;;10.88;4.20;;;32.10;97.10;;;;;;1961751;72;21178;-72
2023/06/25 08:00:32;;;;;;;6.75;3.65;;;32.10;97.30;;;;;;1960452;72;21162;-71
2023/06/25 08:03:04;;;;;;;6.53;2.92;;;32.00;97.90;;;;;;1921755;73;21096;-73
2023/06/25 08:05:35;;;;;;;7.40;2.87;;;32.00;97.70;;;;;;1964564;71;21091;-72
2023/06/25 08:08:07;;;;;;;5.45;2.90;;;31.90;97.80;;;;;;1968867;72;21351;-74
2023/06/25 08:10:39;;;;;;;6.28;2.87;;;31.90;98.00;;;;;;1971285;71;21185;-73
2023/06/25 08:13:10;;;;;;;4.47;3.30;;;31.90;98.10;;;;;;1966174;72;21158;-73
2023/06/25 08:15:41;;;;;;;6.40;2.98;;;31.80;98.20;;;;;;1891864;74;21194;-72
2023/06/25 08:18:14;;;;;;;6.10;2.67;;;31.80;98.30;;;;;;1907231;73;21125;-72
2023/06/25 08:20:48;;;;;;;5.95;3.27;;;31.70;98.40;;;;;;1963107;71;21687;-74
2023/06/25 08:23:21;;;;;;;6.00;3.17;;;31.70;98.40;;;;;;1908329;73;21601;-73
2023/06/25 08:26:02;;;;;;;4.55;3.27;;;31.70;98.10;;;;;;1911847;73;21111;-74
2023/06/25 08:28:33;;;;;;;5.45;3.00;;;31.70;98.40;;;;;;1901085;73;21091;-73
2023/06/25 08:31:07;;;;;;;9.43;5.33;;;31.60;98.60;;;;;;1898456;74;21118;-73
2023/06/25 08:33:39;;;;;;;4.55;3.30;;;31.60;98.20;;;;;;1900778;73;21065;-72
2023/06/25 08:36:10;;;;;;;6.45;3.35;;;31.60;98.50;;;;;;1957993;71;21644;-72
2023/06/25 08:38:42;;;;;;;6.20;3.17;;;31.50;98.70;;;;;;1958881;71;21185;-72
2023/06/25 08:41:13;;;;;;;7.47;3.27;;;31.60;98.60;;;;;;1949794;71;21110;-71
2023/06/25 08:43:44;;;;;;;9.28;3.50;;;31.50;98.60;;;;;;1959102;71;21151;-72
2023/06/25 08:46:17;;;;;;;8.30;2.90;;;31.60;99.20;;;;;;1974882;71;21650;-72
2023/06/25 08:48:50;;;;;;;7.05;3.20;;;31.50;98.80;;;;;;1970405;72;21095;-72
2023/06/25 08:51:23;;;;;;;7.62;3.22;;;31.50;98.70;;;;;;1968277;71;21192;-71
2023/06/25 08:54:03;;;;;;;35.35;7.72;;;31.50;98.70;;;;;;1889954;73;21109;-74
2023/06/25 08:56:48;;;;;;;50.80;6.87;;;31.50;99.00;;;;;;1906578;73;21149;-71
2023/06/25 08:59:20;;;;;;;16.17;2.95;;;31.30;99.40;;;;;;1903193;73;21471;-72
2023/06/25 09:01:51;;;;;;;17.10;6.47;;;31.10;99.60;;;;;;1916062;73;21645;-72
2023/06/25 09:04:22;;;;;;;22.42;4.60;;;30.80;99.90;;;;;;1963291;71;21115;-71
2023/06/25 09:06:54;;;;;;;9.45;3.10;;;30.50;99.90;;;;;;1963235;72;21103;-71
2023/06/25 09:09:27;;;;;;;8.83;3.70;;;30.30;99.90;;;;;;1959994;72;21719;-72
2023/06/25 09:11:58;;;;;;;8.70;3.50;;;30.00;99.90;;;;;;1956782;72;21095;-72
2023/06/25 09:14:32;;;;;;;10.23;3.87;;;29.80;99.90;;;;;;1962446;71;21170;-70
2023/06/25 09:17:04;;;;;;;12.78;5.97;;;29.60;99.90;;;;;;1957112;72;21506;-69
2023/06/25 09:19:36;;;;;;;11.85;6.10;;;29.60;99.90;;;;;;1967033;72;21109;-71
2023/06/25 09:22:07;;;;;;;10.95;5.17;;;29.50;99.90;;;;;;1962894;71;21105;-72
2023/06/25 09:24:41;;;;;;;10.28;4.47;;;29.40;99.90;;;;;;1962286;71;21126;-72
2023/06/25 09:27:13;;;;;;;10.05;4.00;;;29.20;99.90;;;;;;1902519;73;21108;-70
2023/06/25 09:29:44;;;;;;;10.40;3.70;;;29.20;99.90;;;;;;1963629;71;21187;-71
2023/06/25 09:32:16;;;;;;;5.72;3.50;;;29.20;99.90;;;;;;1973561;71;21071;-72
2023/06/25 09:34:48;;;;;;;7.30;3.60;;;29.20;99.90;;;;;;1985355;71;21115;-72
2023/06/25 09:37:22;;;;;;;7.10;3.55;;;29.10;99.90;;;;;;1987617;71;21051;-70
2023/06/25 09:39:54;;;;;;;5.58;3.45;;;29.20;99.90;;;;;;1945761;71;21116;-73
2023/06/25 09:42:27;;;;;;;6.08;3.10;;;29.20;99.90;;;;;;1968163;71;21237;-71
2023/06/25 09:44:58;;;;;;;5.50;3.00;;;29.20;99.90;;;;;;1908555;73;21083;-71
2023/06/25 09:47:30;;;;;;;7.03;3.17;;;29.30;99.90;;;;;;1944322;72;21150;-72
2023/06/25 09:50:01;;;;;;;6.65;2.90;;;29.40;99.90;;;;;;1943642;72;21119;-71
2023/06/25 09:52:36;;;;;;;6.62;3.05;;;29.40;99.90;;;;;;1935477;73;21064;-71
2023/06/25 09:55:10;;;;;;;6.25;3.27;;;29.50;99.90;;;;;;1937893;72;21636;-72
2023/06/25 09:57:42;;;;;;;6.28;2.55;;;29.50;99.90;;;;;;1932507;73;21600;-72
2023/06/25 10:00:16;;;;;;;5.17;2.50;;;29.60;99.90;;;;;;1946564;72;21037;-71
2023/06/25 10:02:47;;;;;;;7.35;3.12;;;29.60;99.90;;;;;;1941084;72;21640;-71
2023/06/25 10:05:21;;;;;;;9.48;4.25;;;29.70;99.90;;;;;;1943283;72;21064;-71
2023/06/25 10:07:53;;;;;;;7.95;2.98;;;29.70;99.90;;;;;;1976202;71;21595;-70
2023/06/25 10:10:31;;;;;;;5.05;2.67;;;29.80;99.90;;;;;;1980848;71;21736;-70
2023/06/25 10:13:07;;;;;;;7.58;2.45;;;29.90;99.90;;;;;;1985939;71;21099;-70
2023/06/25 10:15:38;;;;;;;3.75;2.20;;;29.90;99.90;;;;;;1986728;71;21417;-72
2023/06/25 10:18:10;;;;;;;4.58;2.62;;;30.00;99.90;;;;;;1951362;72;21113;-71
2023/06/25 10:20:45;;;;;;;5.30;2.33;;;30.00;99.90;;;;;;1980753;71;21094;-74
2023/06/25 10:23:23;;;;;;;7.58;3.00;;;30.00;99.90;;;;;;1940788;72;21167;-72
2023/06/25 10:26:02;;;;;;;6.47;3.08;;;30.00;99.90;;;;;;1981724;71;21140;-72
2023/06/25 10:28:35;;;;;;;5.20;3.35;;;30.00;99.90;;;;;;1981741;71;21135;-71
2023/06/25 10:31:17;;;;;;;9.45;4.85;;;30.00;99.90;;;;;;1987360;71;21127;-71
2023/06/25 10:33:49;;;;;;;8.93;4.05;;;30.00;99.90;;;;;;1966475;71;21101;-72
2023/06/25 10:36:22;;;;;;;7.65;3.80;;;29.90;99.90;;;;;;1960022;72;21554;-70
2023/06/25 10:38:53;;;;;;;8.40;4.22;;;29.90;99.90;;;;;;1995492;71;21545;-71
2023/06/25 10:41:30;;;;;;;9.95;5.00;;;30.00;99.90;;;;;;1979159;71;21230;-73
2023/06/25 10:44:05;;;;;;;7.17;4.33;;;29.90;99.90;;;;;;1985086;71;21125;-70
2023/06/25 10:46:38;;;;;;;7.33;4.40;;;30.00;99.90;;;;;;1981398;71;21504;-73
2023/06/25 10:49:13;;;;;;;9.30;4.12;;;29.90;99.90;;;;;;1978967;71;21155;-71
2023/06/25 10:51:45;;;;;;;6.75;4.05;;;29.90;99.90;;;;;;1985262;71;21583;-72
2023/06/25 10:54:18;;;;;;;6.67;4.00;;;29.90;99.90;;;;;;1986139;71;21552;-71
2023/06/25 10:56:49;;;;;;;12.30;7.05;;;29.80;99.90;;;;;;1983599;71;21094;-69
2023/06/25 10:59:24;;;;;;;8.75;5.47;;;29.80;99.90;;;;;;1988973;71;21627;-70
2023/06/25 11:01:56;;;;;;;8.88;4.50;;;29.80;99.90;;;;;;1979591;71;21054;-72
2023/06/25 11:04:27;;;;;;;8.58;4.47;;;29.80;99.90;;;;;;1981243;71;21113;-71
2023/06/25 11:06:59;;;;;;;7.33;4.85;;;29.80;99.90;;;;;;1980287;72;21153;-70
2023/06/25 11:09:30;;;;;;;8.40;4.12;;;29.70;99.90;;;;;;1960986;72;21154;-71
2023/06/25 11:12:06;;;;;;;5.90;3.72;;;29.70;99.90;;;;;;1980100;71;21137;-71
2023/06/25 11:14:37;;;;;;;7.00;3.70;;;29.70;99.90;;;;;;1987515;71;21087;-71
2023/06/25 11:17:08;;;;;;;6.20;4.03;;;29.70;99.90;;;;;;1975946;71;21182;-71
2023/06/25 11:19:40;;;;;;;7.95;4.10;;;29.70;99.90;;;;;;1991677;71;21060;-73
2023/06/25 11:22:11;;;;;;;8.25;4.20;;;29.60;99.90;;;;;;1990649;71;21164;-72
2023/06/25 11:24:44;;;;;;;7.50;3.92;;;29.60;99.90;;;;;;1993892;71;21570;-70
2023/06/25 11:27:17;;;;;;;9.60;4.12;;;29.60;99.90;;;;;;1984775;71;21165;-72
2023/06/25 11:29:49;;;;;;;9.10;4.17;;;29.60;99.90;;;;;;1976791;71;21116;-73
2023/06/25 11:32:25;;;;;;;7.85;4.15;;;29.50;99.90;;;;;;1986632;71;21638;-73
2023/06/25 11:34:58;;;;;;;6.78;4.65;;;29.60;99.90;;;;;;1982218;71;21154;-72
2023/06/25 11:37:36;;;;;;;5.45;4.20;;;29.50;99.90;;;;;;1983878;71;21126;-71
2023/06/25 11:40:08;;;;;;;5.33;3.52;;;29.50;99.90;;;;;;1991823;71;21172;-73
2023/06/25 11:42:40;;;;;;;10.08;4.15;;;29.50;99.90;;;;;;1984485;71;21131;-73
2023/06/25 11:45:15;;;;;;;10.03;4.30;;;29.50;99.90;;;;;;1984524;71;21142;-73
2023/06/25 11:47:53;;;;;;;11.45;5.10;;;29.40;99.90;;;;;;1974827;71;21580;-75
2023/06/25 11:50:28;;;;;;;7.03;4.20;;;29.40;99.90;;;;;;1980353;71;21142;-76
2023/06/25 11:52:59;;;;;;;7.78;4.33;;;29.40;99.90;;;;;;1942454;72;21184;-75
2023/06/25 11:55:31;;;;;;;6.78;3.80;;;29.40;99.90;;;;;;1931143;73;21206;-75
2023/06/25 11:58:04;;;;;;;7.40;4.30;;;29.40;99.90;;;;;;1943841;72;21038;-74
2023/06/25 12:00:40;;;;;;;8.60;4.47;;;29.40;99.90;;;;;;1950789;72;21468;-74
2023/06/25 12:03:13;;;;;;;7.97;4.37;;;29.30;99.90;;;;;;1942684;72;21154;-75
2023/06/25 12:05:45;;;;;;;6.45;4.22;;;29.30;99.90;;;;;;1921049;73;21118;-75
2023/06/25 12:08:16;;;;;;;9.98;4.72;;;29.30;99.90;;;;;;1940642;72;21143;-74
2023/06/25 12:13:42;;;;;;;11.33;4.90;;;29.30;99.90;;;;;;1898877;74;21120;-74
2023/06/25 12:16:14;;;;;;;7.12;4.28;;;29.30;99.90;;;;;;1892316;75;21153;-75
2023/06/25 12:18:46;;;;;;;9.08;4.83;;;29.30;99.90;;;;;;1882930;75;21075;-74
2023/06/25 12:21:26;;;;;;;7.35;4.65;;;29.30;99.90;;;;;;1884240;76;21146;-75
2023/06/25 12:24:00;;;;;;;7.78;4.40;;;29.30;99.90;;;;;;1916914;74;21552;-75
2023/06/25 12:26:33;;;;;;;9.28;4.47;;;29.30;99.90;;;;;;1893063;74;21255;-74
2023/06/25 12:29:07;;;;;;;8.18;4.87;;;29.30;99.90;;;;;;1875935;75;21137;-76
2023/06/25 12:31:40;;;;;;;8.70;3.95;;;29.20;99.90;;;;;;1913953;74;21125;-75
2023/06/25 12:34:11;;;;;;;9.23;4.67;;;29.20;99.90;;;;;;1918915;73;21187;-76
2023/06/25 12:36:46;;;;;;;7.25;3.80;;;29.20;99.90;;;;;;1908210;75;21172;-75
2023/06/25 12:39:20;;;;;;;6.45;3.98;;;29.20;99.90;;;;;;1910257;74;21069;-75
2023/06/25 12:41:54;;;;;;;5.60;3.92;;;29.20;99.90;;;;;;1872120;76;21197;-78
2023/06/25 12:44:31;;;;;;;7.15;3.50;;;29.20;99.90;;;;;;1918761;73;21023;-75
2023/06/25 12:47:06;;;;;;;5.97;3.55;;;29.10;99.90;;;;;;1899489;74;21140;-76
2023/06/25 12:49:37;;;;;;;8.38;3.92;;;29.10;99.90;;;;;;1874870;75;21191;-74
2023/06/25 12:52:10;;;;;;;6.10;3.77;;;29.10;99.90;;;;;;1918984;74;21100;-75
2023/06/25 12:54:44;;;;;;;5.40;3.72;;;29.10;99.90;;;;;;1923506;73;21174;-75
2023/06/25 12:57:24;;;;;;;8.93;4.33;;;29.10;99.90;;;;;;1927981;73;21585;-77
2023/06/25 12:59:55;;;;;;;7.45;4.20;;;29.10;99.90;;;;;;1924704;73;21047;-75
2023/06/25 13:02:29;;;;;;;11.03;4.20;;;29.10;99.90;;;;;;1928782;73;21064;-75
2023/06/25 13:05:01;;;;;;;10.32;4.15;;;29.10;99.90;;;;;;1920847;73;21068;-75
2023/06/25 13:07:35;;;;;;;8.50;4.78;;;29.10;99.90;;;;;;1932984;73;21206;-76
2023/06/25 13:10:07;;;;;;;9.08;4.60;;;29.10;99.90;;;;;;1936886;73;21656;-75
2023/06/25 13:12:40;;;;;;;8.03;4.78;;;29.10;99.90;;;;;;1913621;74;21173;-77
2023/06/25 13:15:12;;;;;;;7.35;4.30;;;29.10;99.90;;;;;;1929615;73;21144;-78